Time;durP1;ratioP1;P1;durP2;ratioP2;P2;SDS_P1;SDS_P2;PMS_P1;PMS_P2;Temp;Humidity;BMP_temperature;BMP_pressure;BME280_temperature;BME280_humidity;BME280_pressure;Samples;Min_cycle;Max_cycle;Signal;HPM_P1;HPM_P2
2022/01/20 00:02:09;;;;;;;37.00;16.77;;;;;;;0.26;88.12;99317.66;4141188;28;20332;-66
2022/01/20 00:04:45;;;;;;;42.73;17.17;;;;;;;0.25;88.41;99321.22;4146342;28;20392;-65
2022/01/20 00:26:09;;;;;;;39.93;16.10;;;;;;;0.35;87.87;99285.63;4149838;28;20238;-65
2022/01/20 00:28:45;;;;;;;34.70;16.50;;;;;;;0.37;87.66;99288.94;4146087;28;20391;-65
2022/01/20 00:31:32;;;;;;;34.17;16.83;;;;;;;0.32;87.71;99272.75;4145490;28;21250;-64
2022/01/20 00:34:15;;;;;;;37.67;15.93;;;;;;;0.36;87.75;99270.75;4161486;28;22320;-65
2022/01/20 00:39:28;;;;;;;38.00;16.63;;;;;;;0.36;88.02;99253.28;4136198;28;21331;-66
2022/01/20 00:41:55;;;;;;;41.90;16.33;;;;;;;0.37;87.98;99241.84;4141353;28;23478;-67
2022/01/20 00:44:23;;;;;;;41.77;16.93;;;;;;;0.37;87.97;99247.09;4153956;28;20313;-65
2022/01/20 00:46:51;;;;;;;37.33;16.43;;;;;;;0.40;88.18;99239.03;4137725;28;20257;-65
2022/01/20 00:49:17;;;;;;;36.17;16.70;;;;;;;0.38;88.21;99235.69;4155798;28;20230;-64
2022/01/20 00:51:45;;;;;;;36.63;16.70;;;;;;;0.40;88.16;99233.81;4157955;28;20247;-68
2022/01/20 00:54:18;;;;;;;34.53;16.73;;;;;;;0.45;88.39;99225.63;4147949;29;20677;-65
2022/01/20 00:56:44;;;;;;;34.47;16.37;;;;;;;0.49;88.23;99223.59;4146753;28;20285;-64
2022/01/20 00:59:13;;;;;;;34.97;16.13;;;;;;;0.51;87.79;99226.94;4149970;28;20229;-65
2022/01/20 01:01:39;;;;;;;35.87;16.50;;;;;;;0.51;88.03;99219.91;4149539;28;20234;-65
2022/01/20 01:04:07;;;;;;;39.70;16.97;;;;;;;0.54;87.84;99198.78;4146399;28;20249;-66
2022/01/20 01:06:56;;;;;;;34.07;16.93;;;;;;;0.60;87.72;99214.03;4164068;29;20298;-64
2022/01/20 01:09:23;;;;;;;37.67;16.97;;;;;;;0.63;87.69;99197.25;4150273;29;20241;-65
2022/01/20 01:11:51;;;;;;;39.07;16.57;;;;;;;0.65;87.23;99192.75;4152587;28;20284;-65
2022/01/20 01:14:20;;;;;;;38.17;16.97;;;;;;;0.69;87.20;99193.38;4146443;28;20302;-64
2022/01/20 01:24:40;;;;;;;36.57;16.90;;;;;;;0.74;87.15;99183.38;4172345;28;20255;-65
2022/01/20 01:27:08;;;;;;;35.40;16.63;;;;;;;0.78;86.72;99177.81;4152830;28;21054;-64
2022/01/20 01:32:13;;;;;;;35.63;17.70;;;;;;;0.76;86.94;99171.84;4162624;28;22528;-68
2022/01/20 01:34:46;;;;;;;36.80;17.13;;;;;;;0.78;87.20;99162.09;4155578;28;20238;-66
2022/01/20 01:37:37;;;;;;;39.80;16.30;;;;;;;0.81;86.84;99150.56;4146710;28;20342;-65
2022/01/20 01:40:05;;;;;;;34.20;16.10;;;;;;;0.83;86.52;99159.97;4155559;28;20277;-65
2022/01/20 01:42:46;;;;;;;39.23;18.03;;;;;;;0.81;86.38;99145.31;4160941;28;20254;-65
2022/01/20 01:45:19;;;;;;;36.53;16.67;;;;;;;0.81;86.60;99130.44;4142895;28;20238;-66
2022/01/20 01:47:47;;;;;;;37.50;16.47;;;;;;;0.77;86.91;99126.41;4150658;28;20243;-65
2022/01/20 01:50:14;;;;;;;38.63;17.93;;;;;;;0.74;87.43;99120.53;4165962;28;20305;-65
2022/01/20 01:52:41;;;;;;;39.80;18.87;;;;;;;0.73;87.96;99116.28;4149577;28;20314;-65
2022/01/20 01:55:08;;;;;;;35.73;16.73;;;;;;;0.66;88.81;99108.03;4145409;28;20469;-67
2022/01/20 01:57:35;;;;;;;42.53;18.83;;;;;;;0.62;89.65;99103.97;4151794;28;21809;-64
2022/01/20 02:00:05;;;;;;;36.93;17.70;;;;;;;0.58;90.74;99107.75;4150202;28;20235;-66
2022/01/20 02:02:32;;;;;;;43.57;18.43;;;;;;;0.48;92.03;99105.00;4148912;28;21394;-67
2022/01/20 02:05:02;;;;;;;36.70;17.27;;;;;;;0.45;93.28;99107.03;4149145;28;20361;-66
2022/01/20 02:18:44;;;;;;;50.67;20.83;;;;;;;0.11;98.61;99080.72;4138110;28;20342;-67
2022/01/20 02:21:13;;;;;;;44.73;22.03;;;;;;;0.08;98.71;99079.16;4150988;28;25538;-68
2022/01/20 02:23:39;;;;;;;52.60;22.63;;;;;;;0.08;99.39;99070.47;4146474;28;21347;-66
2022/01/20 02:26:06;;;;;;;46.77;21.27;;;;;;;0.07;99.95;99063.56;4139246;28;20269;-67
2022/01/20 02:28:33;;;;;;;49.73;22.47;;;;;;;0.09;100.00;99053.81;4153305;28;20236;-67
2022/01/20 02:31:00;;;;;;;50.40;22.40;;;;;;;0.03;100.00;99054.28;4139475;28;24329;-65
2022/01/20 02:33:29;;;;;;;50.60;22.83;;;;;;;0.03;100.00;99046.44;4138357;28;20232;-67
2022/01/20 02:36:10;;;;;;;49.23;22.50;;;;;;;-0.11;100.00;99043.06;4139969;28;22554;-66
2022/01/20 02:38:42;;;;;;;51.60;23.60;;;;;;;-0.05;100.00;99042.63;4167544;28;20285;-65
2022/01/20 02:46:41;;;;;;;57.67;23.87;;;;;;;-0.15;100.00;99025.91;4150691;28;21848;-65
2022/01/20 02:49:13;;;;;;;52.50;24.80;;;;;;;-0.18;100.00;99028.75;4151364;28;20337;-67
2022/01/20 02:51:46;;;;;;;47.43;23.83;;;;;;;-0.15;100.00;99031.16;4144599;28;21363;-65
2022/01/20 02:54:13;;;;;;;53.03;24.07;;;;;;;-0.09;100.00;99015.03;4149249;28;20241;-65
2022/01/20 02:56:39;;;;;;;49.83;23.43;;;;;;;-0.18;100.00;99010.47;4152770;28;21891;-67
2022/01/20 02:59:07;;;;;;;48.03;23.70;;;;;;;-0.18;100.00;98988.72;4143163;28;20679;-63
2022/01/20 03:01:33;;;;;;;54.77;23.33;;;;;;;-0.24;100.00;98990.81;4147018;28;20238;-64
2022/01/20 03:04:02;;;;;;;53.83;24.93;;;;;;;-0.23;100.00;98987.28;4155995;28;21848;-65
2022/01/20 03:06:29;;;;;;;54.63;25.07;;;;;;;-0.23;100.00;98983.84;4156407;28;21729;-66
2022/01/20 03:08:55;;;;;;;52.30;24.20;;;;;;;-0.26;100.00;98965.75;4163867;28;21841;-66
2022/01/20 03:11:22;;;;;;;57.40;24.90;;;;;;;-0.26;100.00;98961.38;4154369;29;20305;-64
2022/01/20 03:13:48;;;;;;;50.27;22.83;;;;;;;-0.29;100.00;98960.75;4155920;28;21967;-65
2022/01/20 03:16:15;;;;;;;58.90;24.97;;;;;;;-0.26;100.00;98966.59;4169772;28;20226;-66
2022/01/20 03:18:42;;;;;;;54.10;24.47;;;;;;;-0.35;100.00;98955.94;4154292;28;20286;-65
2022/01/20 03:21:08;;;;;;;54.30;23.47;;;;;;;-0.28;100.00;98951.94;4149330;28;22793;-66
2022/01/20 03:23:35;;;;;;;55.47;24.87;;;;;;;-0.24;100.00;98948.16;4155515;28;20242;-66
2022/01/20 03:26:01;;;;;;;51.27;23.20;;;;;;;-0.24;100.00;98954.22;4149919;28;20249;-67
2022/01/20 03:28:28;;;;;;;55.60;24.20;;;;;;;-0.20;100.00;98954.84;4165430;28;20440;-66
2022/01/20 03:30:56;;;;;;;59.27;24.73;;;;;;;-0.23;100.00;98955.91;4151858;28;22754;-65
2022/01/20 03:33:22;;;;;;;50.30;24.47;;;;;;;-0.26;100.00;98956.13;4170395;28;20595;-64
2022/01/20 03:35:51;;;;;;;55.70;25.53;;;;;;;-0.35;100.00;98946.34;4150001;28;22354;-66
2022/01/20 03:38:19;;;;;;;56.30;26.53;;;;;;;-0.35;100.00;98940.28;4152914;28;21672;-64
2022/01/20 03:40:45;;;;;;;59.83;26.13;;;;;;;-0.41;100.00;98941.56;4151144;29;20237;-64
2022/01/20 03:43:12;;;;;;;57.97;24.53;;;;;;;-0.31;100.00;98939.09;4149014;28;23945;-65
2022/01/20 03:45:39;;;;;;;64.20;26.07;;;;;;;-0.27;100.00;98944.00;4143636;28;20252;-65
2022/01/20 03:48:11;;;;;;;63.60;26.23;;;;;;;-0.33;100.00;98948.84;4147523;28;20722;-67
2022/01/20 03:53:25;;;;;;;61.07;25.33;;;;;;;-0.39;100.00;98938.84;4153060;28;20230;-66
2022/01/20 03:55:51;;;;;;;60.67;25.50;;;;;;;-0.34;100.00;98929.72;4160168;28;21207;-64
2022/01/20 03:58:18;;;;;;;71.33;26.13;;;;;;;-0.36;100.00;98928.16;4140815;28;20679;-64
2022/01/20 04:00:45;;;;;;;56.17;24.27;;;;;;;-0.31;100.00;98933.88;4151202;28;20478;-66
2022/01/20 04:03:13;;;;;;;63.33;26.13;;;;;;;-0.25;100.00;98929.03;4169114;28;20245;-64
2022/01/20 04:05:56;;;;;;;62.80;25.03;;;;;;;-0.24;100.00;98904.56;4149642;28;20238;-64
2022/01/20 04:08:30;;;;;;;55.30;25.80;;;;;;;-0.21;100.00;98932.28;4147248;28;21326;-64
2022/01/20 04:10:58;;;;;;;52.40;24.17;;;;;;;-0.30;100.00;98923.31;4153782;29;23754;-65
2022/01/20 04:13:30;;;;;;;61.27;25.67;;;;;;;-0.30;100.00;98917.28;4160387;28;20361;-65
2022/01/20 04:16:02;;;;;;;56.90;25.00;;;;;;;-0.23;100.00;98918.47;4168520;28;20338;-68
2022/01/20 04:18:29;;;;;;;52.47;24.07;;;;;;;-0.25;100.00;98920.38;4144533;28;20260;-65
2022/01/20 04:20:56;;;;;;;52.20;23.40;;;;;;;-0.24;100.00;98922.03;4157724;28;21702;-64
2022/01/20 04:23:23;;;;;;;57.70;24.90;;;;;;;-0.27;100.00;98915.25;4146061;28;20261;-68
2022/01/20 04:25:49;;;;;;;53.83;24.03;;;;;;;-0.23;100.00;98911.47;4154935;28;20234;-65
2022/01/20 04:28:16;;;;;;;56.63;24.43;;;;;;;-0.21;100.00;98906.13;4163852;28;20226;-64
2022/01/20 04:30:42;;;;;;;48.47;23.23;;;;;;;-0.17;100.00;98907.53;4151912;28;20234;-64
2022/01/20 04:33:09;;;;;;;65.17;25.33;;;;;;;-0.16;100.00;98897.94;4175854;28;20289;-63
2022/01/20 04:35:35;;;;;;;54.13;24.13;;;;;;;-0.15;100.00;98910.88;4148908;28;20247;-64
2022/01/20 04:38:03;;;;;;;51.70;23.97;;;;;;;-0.07;100.00;98911.16;4145248;28;20510;-67
2022/01/20 04:40:36;;;;;;;49.10;23.93;;;;;;;-0.06;100.00;98909.38;4152600;28;20246;-64
2022/01/20 04:43:03;;;;;;;48.17;22.93;;;;;;;-0.06;100.00;98909.38;4154869;28;20325;-65
2022/01/20 04:45:35;;;;;;;51.43;25.00;;;;;;;-0.10;100.00;98898.28;4147844;28;20227;-64
2022/01/20 04:59:03;;;;;;;53.40;23.93;;;;;;;0.06;100.00;98889.31;4155314;28;20230;-65
2022/01/20 05:01:30;;;;;;;52.87;23.50;;;;;;;0.09;100.00;98891.69;4139942;28;20405;-66
2022/01/20 05:03:57;;;;;;;52.90;23.33;;;;;;;0.09;100.00;98892.50;4145836;28;21172;-64
2022/01/20 05:06:24;;;;;;;48.33;22.57;;;;;;;0.10;100.00;98888.13;4156685;28;20230;-64
2022/01/20 05:08:52;;;;;;;50.33;22.83;;;;;;;0.10;100.00;98885.50;4156130;28;20227;-65
2022/01/20 05:11:19;;;;;;;48.90;22.77;;;;;;;0.13;100.00;98874.81;4157437;28;20317;-64
2022/01/20 05:13:46;;;;;;;46.67;21.57;;;;;;;0.13;100.00;98869.56;4157036;28;21342;-65
2022/01/20 05:16:12;;;;;;;44.80;22.33;;;;;;;0.15;100.00;98876.34;4150060;28;20259;-64
2022/01/20 05:18:39;;;;;;;48.23;23.60;;;;;;;0.17;100.00;98878.88;4167281;28;20230;-65
2022/01/20 05:21:09;;;;;;;46.30;22.07;;;;;;;0.16;100.00;98866.72;4146604;28;22127;-63
2022/01/20 05:23:35;;;;;;;50.23;23.17;;;;;;;0.13;100.00;98854.72;4157170;28;21816;-65
2022/01/20 05:26:02;;;;;;;52.53;23.57;;;;;;;0.20;100.00;98873.38;4151916;28;21316;-64
2022/01/20 05:28:28;;;;;;;49.47;23.67;;;;;;;0.13;100.00;98859.94;4154190;28;23595;-64
2022/01/20 05:30:55;;;;;;;48.27;23.30;;;;;;;0.14;100.00;98864.25;4156691;28;20387;-65
2022/01/20 05:33:22;;;;;;;52.13;23.80;;;;;;;0.09;100.00;98860.28;4155278;28;21236;-66
2022/01/20 05:35:48;;;;;;;48.73;23.63;;;;;;;0.06;100.00;98860.53;4152412;28;20264;-63
2022/01/20 05:38:15;;;;;;;49.57;24.97;;;;;;;0.05;100.00;98857.09;4157419;28;20322;-65
2022/01/20 05:40:41;;;;;;;63.30;27.93;;;;;;;0.07;100.00;98862.19;4157955;28;20245;-65
2022/01/20 05:43:08;;;;;;;53.47;25.47;;;;;;;0.15;100.00;98859.84;4156081;28;20301;-64
2022/01/20 05:45:35;;;;;;;49.07;23.77;;;;;;;0.18;100.00;98862.22;4149079;28;20944;-65
2022/01/20 05:48:33;;;;;;;47.13;24.27;;;;;;;0.24;100.00;98890.53;4157836;28;21720;-64
2022/01/20 05:50:50;;;;;;;51.77;22.57;;;;;;;0.26;100.00;98896.47;4155040;28;20281;-66
2022/01/20 05:53:16;;;;;;;26.50;13.07;;;;;;;-0.03;100.00;98886.41;4152180;28;20384;-64
2022/01/20 05:55:43;;;;;;;18.67;9.10;;;;;;;-0.19;100.00;98883.28;4147425;28;20234;-66
2022/01/20 05:58:09;;;;;;;15.97;6.57;;;;;;;-0.35;100.00;98894.09;4154836;28;22126;-66
2022/01/20 06:00:36;;;;;;;15.40;6.23;;;;;;;-0.43;100.00;98906.88;4158062;28;23664;-65
2022/01/20 06:05:49;;;;;;;16.37;6.13;;;;;;;-0.56;100.00;98899.13;4155538;28;20292;-64
2022/01/20 06:08:16;;;;;;;10.90;4.27;;;;;;;-0.50;100.00;98903.03;4169949;28;20238;-65
2022/01/20 06:10:43;;;;;;;21.20;5.17;;;;;;;-0.51;100.00;98902.22;4137888;28;20250;-65
2022/01/20 06:13:10;;;;;;;15.40;4.33;;;;;;;-0.47;100.00;98908.91;4153321;28;20304;-66
2022/01/20 06:15:36;;;;;;;17.63;4.43;;;;;;;-0.41;100.00;98904.16;4154678;28;20230;-65
2022/01/20 06:18:03;;;;;;;20.57;4.90;;;;;;;-0.44;100.00;98913.88;4165714;28;22233;-64
2022/01/20 06:20:31;;;;;;;19.37;4.33;;;;;;;-0.48;100.00;98904.59;4138565;28;20236;-65
2022/01/20 06:22:57;;;;;;;12.70;4.00;;;;;;;-0.50;100.00;98906.47;4151178;28;20229;-62
2022/01/20 06:25:29;;;;;;;14.77;4.07;;;;;;;-0.47;100.00;98915.88;4155427;28;20241;-64
2022/01/20 06:27:56;;;;;;;16.57;4.77;;;;;;;-0.51;100.00;98904.00;4150774;29;20309;-63
2022/01/20 06:30:24;;;;;;;19.17;3.80;;;;;;;-0.47;100.00;98895.84;4158093;29;21870;-64
2022/01/20 06:32:52;;;;;;;16.83;3.43;;;;;;;-0.51;100.00;98897.00;4147815;29;20231;-64
2022/01/20 06:35:20;;;;;;;12.13;3.03;;;;;;;-0.53;100.00;98883.22;4142303;28;20232;-67
2022/01/20 06:37:46;;;;;;;10.90;3.03;;;;;;;-0.45;98.91;98888.69;4149694;28;20399;-66
2022/01/20 06:40:13;;;;;;;18.17;3.10;;;;;;;-0.45;97.82;98880.03;4136940;28;20243;-65
2022/01/20 06:42:41;;;;;;;19.87;3.17;;;;;;;-0.41;97.96;98873.63;4153918;28;20264;-65
2022/01/20 06:45:10;;;;;;;14.90;3.00;;;;;;;-0.45;97.88;98880.84;4152242;28;20246;-68
2022/01/20 06:47:36;;;;;;;13.63;2.70;;;;;;;-0.41;97.64;98883.25;4145298;28;20301;-64
2022/01/20 06:50:05;;;;;;;10.57;3.03;;;;;;;-0.46;97.33;98876.56;4137448;28;20248;-65
2022/01/20 06:52:33;;;;;;;11.73;3.07;;;;;;;-0.38;96.81;98883.00;4138135;29;20347;-63
2022/01/20 06:55:00;;;;;;;14.70;3.33;;;;;;;-0.40;96.22;98885.72;4145446;28;20246;-66
2022/01/20 06:57:27;;;;;;;13.50;2.90;;;;;;;-0.48;96.54;98882.88;4154715;28;23744;-65
2022/01/20 06:59:53;;;;;;;15.27;2.93;;;;;;;-0.52;96.64;98889.25;4143865;28;20690;-65
2022/01/20 07:02:20;;;;;;;11.47;2.80;;;;;;;-0.56;97.06;98879.97;4149443;28;23629;-66
2022/01/20 07:04:47;;;;;;;19.57;3.27;;;;;;;-0.57;96.30;98884.38;4169202;28;22001;-64
2022/01/20 07:07:17;;;;;;;12.33;2.13;;;;;;;-0.59;96.52;98882.81;4139175;28;21963;-66
2022/01/20 07:09:44;;;;;;;17.20;2.80;;;;;;;-0.62;96.09;98883.06;4206943;28;20919;-65
2022/01/20 07:12:11;;;;;;;20.53;3.20;;;;;;;-0.71;96.75;98876.72;4237912;28;21691;-65
2022/01/20 07:14:39;;;;;;;15.27;2.77;;;;;;;-0.66;95.91;98885.91;4189439;28;20864;-67
2022/01/20 07:17:06;;;;;;;17.47;2.40;;;;;;;-0.65;95.13;98881.50;4225435;28;23605;-63
2022/01/20 07:19:33;;;;;;;11.57;2.73;;;;;;;-0.65;95.11;98889.34;4214970;28;20320;-64
2022/01/20 07:22:00;;;;;;;16.00;2.93;;;;;;;-0.62;94.16;98888.28;4150183;28;21225;-63
2022/01/20 07:24:29;;;;;;;15.47;2.77;;;;;;;-0.60;93.12;98884.59;4140504;28;20272;-64
2022/01/20 07:26:59;;;;;;;11.97;2.53;;;;;;;-0.62;93.35;98891.72;4160009;28;20240;-66
2022/01/20 07:29:26;;;;;;;20.40;3.47;;;;;;;-0.60;92.63;98884.59;4170952;28;20296;-64
2022/01/20 07:31:53;;;;;;;16.70;3.50;;;;;;;-0.59;92.02;98865.34;4149059;28;21858;-65
2022/01/20 07:34:20;;;;;;;18.10;3.97;;;;;;;-0.62;92.29;98862.97;4164098;28;20301;-65
2022/01/20 07:36:47;;;;;;;19.27;3.37;;;;;;;-0.61;92.23;98869.84;4161827;28;20241;-65
2022/01/20 07:39:13;;;;;;;23.37;4.43;;;;;;;-0.56;92.16;98870.38;4154549;28;20249;-62
2022/01/20 07:41:40;;;;;;;16.87;3.70;;;;;;;-0.59;91.70;98873.19;4158312;28;20230;-65
2022/01/20 07:44:08;;;;;;;15.10;3.17;;;;;;;-0.61;91.22;98877.69;4148563;28;20290;-63
2022/01/20 07:46:36;;;;;;;16.23;3.40;;;;;;;-0.62;91.32;98876.03;4160210;28;22122;-65
2022/01/20 07:49:03;;;;;;;16.17;2.97;;;;;;;-0.56;90.75;98874.75;4173131;28;20232;-68
2022/01/20 07:51:32;;;;;;;18.97;3.53;;;;;;;-0.51;90.44;98867.44;4155965;28;21402;-67
2022/01/20 07:53:58;;;;;;;19.47;3.93;;;;;;;-0.41;89.59;98872.81;4157858;28;20235;-67
2022/01/20 07:56:25;;;;;;;9.97;2.80;;;;;;;-0.41;88.94;98862.34;4167562;28;20497;-67
2022/01/20 07:58:52;;;;;;;15.13;3.07;;;;;;;-0.33;87.94;98845.16;4171188;28;20249;-65
2022/01/20 08:01:22;;;;;;;10.27;2.57;;;;;;;-0.24;87.37;98849.66;4158393;28;20238;-64
2022/01/20 08:03:49;;;;;;;10.33;2.80;;;;;;;-0.23;88.05;98853.13;4161212;28;20231;-66
2022/01/20 08:06:15;;;;;;;10.93;2.43;;;;;;;-0.18;87.11;98858.84;4166426;28;20345;-66
2022/01/20 08:08:50;;;;;;;9.80;2.50;;;;;;;-0.05;86.24;98858.72;4180537;28;20352;-65
2022/01/20 08:11:19;;;;;;;15.23;2.77;;;;;;;-0.09;85.71;98852.91;4168956;28;20239;-66
2022/01/20 08:13:45;;;;;;;10.70;2.67;;;;;;;-0.04;86.55;98856.00;4172130;28;20250;-66
2022/01/20 08:16:12;;;;;;;12.87;2.83;;;;;;;0.04;86.17;98857.22;4148683;28;21811;-68
2022/01/20 08:18:39;;;;;;;9.20;2.43;;;;;;;0.18;85.43;98870.88;4179701;28;20255;-67
2022/01/20 08:21:07;;;;;;;11.03;2.83;;;;;;;0.12;86.11;98852.22;4150319;28;20239;-66
2022/01/20 08:23:36;;;;;;;8.67;2.73;;;;;;;0.15;86.78;98844.97;4199705;28;21802;-69
2022/01/20 08:26:03;;;;;;;12.40;2.40;;;;;;;0.22;86.92;98832.25;4135478;28;20243;-68
2022/01/20 08:28:30;;;;;;;7.70;2.80;;;;;;;0.26;87.58;98831.06;4173745;28;22084;-67
2022/01/20 08:30:56;;;;;;;8.27;2.70;;;;;;;0.36;87.52;98842.47;4154219;28;20315;-68
2022/01/20 08:33:23;;;;;;;16.10;2.77;;;;;;;0.44;87.50;98823.56;4148954;28;20230;-66
2022/01/20 08:35:50;;;;;;;12.90;2.90;;;;;;;0.45;87.56;98808.72;4146472;28;20311;-66
2022/01/20 08:38:17;;;;;;;17.50;2.80;;;;;;;0.76;86.63;98807.09;4186251;28;20710;-67
2022/01/20 08:40:44;;;;;;;11.17;2.80;;;;;;;0.98;84.91;98806.19;4200865;28;20242;-68
2022/01/20 08:43:11;;;;;;;14.03;3.20;;;;;;;1.28;83.15;98792.38;4181206;28;20241;-69
2022/01/20 08:45:38;;;;;;;10.87;2.50;;;;;;;2.76;77.34;98801.59;4188962;28;20314;-68
2022/01/20 08:48:08;;;;;;;11.00;2.60;;;;;;;3.52;71.76;98825.44;4162911;28;20297;-68
2022/01/20 08:50:36;;;;;;;9.73;2.53;;;;;;;3.14;70.38;98818.41;4230420;28;20372;-67
2022/01/20 08:53:02;;;;;;;13.33;2.20;;;;;;;2.71;72.10;98840.56;4179442;28;20232;-71
2022/01/20 08:55:30;;;;;;;9.40;2.27;;;;;;;2.21;74.55;98837.94;4185646;28;20314;-66
2022/01/20 08:57:57;;;;;;;7.90;2.30;;;;;;;2.08;76.50;98828.50;4192282;28;21225;-69
2022/01/20 09:00:26;;;;;;;11.47;2.33;;;;;;;1.31;79.29;98827.97;4174307;28;20901;-67
2022/01/20 09:02:53;;;;;;;12.60;2.20;;;;;;;1.07;80.65;98830.81;4174989;28;20861;-66
2022/01/20 09:05:20;;;;;;;9.73;2.30;;;;;;;0.67;82.81;98834.00;4171030;28;21867;-67
2022/01/20 09:07:46;;;;;;;8.57;2.17;;;;;;;0.56;83.87;98808.66;4170451;28;20309;-69
2022/01/20 09:10:19;;;;;;;7.57;2.30;;;;;;;0.49;83.64;98813.59;4162743;28;21009;-70
2022/01/20 09:15:29;;;;;;;10.90;2.67;;;;;;;0.58;85.40;98809.38;4178020;28;23305;-67
2022/01/20 09:17:57;;;;;;;11.07;2.30;;;;;;;0.53;86.27;98840.31;4154081;28;21459;-67
2022/01/20 09:20:24;;;;;;;6.50;2.37;;;;;;;0.44;86.16;98827.97;4159541;28;20301;-68
2022/01/20 09:22:51;;;;;;;12.33;2.97;;;;;;;0.37;86.26;98820.56;4162115;28;23955;-68
2022/01/20 09:25:18;;;;;;;14.10;2.57;;;;;;;0.35;87.34;98835.59;4174142;28;20249;-71
2022/01/20 09:27:45;;;;;;;8.87;2.10;;;;;;;0.37;83.51;98804.88;4175567;28;20274;-75
2022/01/20 09:30:18;;;;;;;13.30;2.73;;;;;;;0.35;84.54;98809.44;4213428;28;20233;-79
2022/01/20 09:32:57;;;;;;;10.63;2.50;;;;;;;0.39;83.29;98805.59;4175717;28;20257;-67
2022/01/20 09:35:34;;;;;;;10.03;2.20;;;;;;;0.34;81.99;98805.13;4199539;28;22892;-66
2022/01/20 09:38:02;;;;;;;11.13;2.10;;;;;;;0.30;78.34;98803.69;4162111;28;20633;-66
2022/01/20 09:40:30;;;;;;;14.47;3.83;;;;;;;0.26;78.91;98806.69;4130971;28;20240;-65
2022/01/20 09:42:57;;;;;;;11.20;2.67;;;;;;;0.25;78.67;98784.91;4167571;28;21220;-66
2022/01/20 09:45:24;;;;;;;10.63;2.40;;;;;;;0.11;76.61;98786.00;4157431;28;21584;-65
2022/01/20 09:47:51;;;;;;;7.03;2.10;;;;;;;0.05;77.04;98796.09;4129646;28;21354;-66
2022/01/20 09:50:20;;;;;;;11.53;2.00;;;;;;;-0.04;76.30;98805.50;4164939;28;22149;-67
2022/01/20 09:52:47;;;;;;;7.57;2.03;;;;;;;-0.02;76.80;98808.84;4167036;28;22014;-69
2022/01/20 09:55:15;;;;;;;10.93;2.60;;;;;;;-0.01;78.04;98803.47;4158779;28;20234;-69
2022/01/20 09:57:42;;;;;;;14.20;3.23;;;;;;;-0.02;77.29;98801.00;4157470;28;20292;-70
2022/01/20 10:00:11;;;;;;;13.67;3.33;;;;;;;-0.07;73.48;98798.72;4134696;28;20263;-69
2022/01/20 10:02:50;;;;;;;10.70;2.13;;;;;;;-0.11;70.07;98788.63;4183875;28;20236;-69
2022/01/20 10:05:25;;;;;;;8.67;2.40;;;;;;;0.04;70.54;98802.28;4198594;28;22794;-66
2022/01/20 10:07:52;;;;;;;15.57;4.10;;;;;;;0.55;72.14;98799.16;4193773;28;20248;-56
2022/01/20 10:10:18;;;;;;;13.63;3.37;;;;;;;0.45;72.50;98795.63;4179017;28;21369;-66
2022/01/20 10:12:45;;;;;;;8.37;2.40;;;;;;;0.24;74.95;98800.75;4222457;28;20255;-68
2022/01/20 10:15:18;;;;;;;10.53;1.87;;;;;;;0.04;76.39;98795.28;4202604;28;20244;-69
2022/01/20 10:17:45;;;;;;;11.30;2.47;;;;;;;0.01;76.54;98789.47;4187203;28;22782;-65
2022/01/20 10:20:12;;;;;;;7.30;1.80;;;;;;;-0.10;76.05;98801.56;4196275;28;20271;-68
2022/01/20 10:22:39;;;;;;;7.87;2.30;;;;;;;-0.13;75.51;98800.97;4156807;28;20242;-68
2022/01/20 10:25:11;;;;;;;7.10;1.80;;;;;;;-0.19;74.66;98799.66;4153232;28;22924;-66
2022/01/20 10:27:47;;;;;;;6.87;1.83;;;;;;;-0.22;75.04;98805.13;4231200;28;20248;-69
2022/01/20 10:30:15;;;;;;;6.47;2.17;;;;;;;-0.16;74.92;98809.06;4254388;28;20704;-67
2022/01/20 10:32:43;;;;;;;9.27;2.47;;;;;;;-0.21;72.74;98798.97;4217399;29;20231;-68
2022/01/20 10:35:11;;;;;;;13.30;2.87;;;;;;;-0.20;72.01;98787.53;4222252;28;20287;-66
2022/01/20 10:37:40;;;;;;;8.53;2.50;;;;;;;-0.29;71.79;98783.00;4323886;28;20241;-67
2022/01/20 10:40:13;;;;;;;9.63;2.47;;;;;;;-0.37;70.43;98775.78;4268375;28;20848;-66
2022/01/20 10:42:47;;;;;;;10.77;2.47;;;;;;;-0.45;71.86;98767.66;4298012;29;20283;-66
2022/01/20 10:45:32;;;;;;;8.37;2.40;;;;;;;-0.40;71.89;98764.69;4294424;28;21790;-66
2022/01/20 10:48:00;;;;;;;10.17;3.17;;;;;;;-0.29;70.42;98754.25;4284276;28;21910;-65
2022/01/20 10:50:32;;;;;;;7.67;2.43;;;;;;;-0.32;70.05;98751.91;4240179;28;20244;-67
2022/01/20 10:52:59;;;;;;;10.00;2.73;;;;;;;-0.31;69.33;98775.28;4247357;28;22206;-67
2022/01/20 10:55:32;;;;;;;9.80;2.77;;;;;;;-0.33;69.80;98768.50;4234777;28;20231;-69
2022/01/20 10:58:17;;;;;;;12.67;2.70;;;;;;;-0.31;68.76;98764.00;4246987;28;26051;-66
2022/01/20 11:00:49;;;;;;;8.13;2.13;;;;;;;-0.29;68.73;98755.09;4258296;28;21510;-64
2022/01/20 11:03:21;;;;;;;8.83;2.00;;;;;;;-0.26;69.20;98751.41;4230768;29;20255;-66
2022/01/20 11:05:51;;;;;;;13.10;2.33;;;;;;;-0.28;68.98;98750.69;4203101;28;20241;-66
2022/01/20 11:08:18;;;;;;;9.00;2.53;;;;;;;-0.30;69.27;98753.44;4198015;28;20245;-68
2022/01/20 11:10:45;;;;;;;8.37;2.20;;;;;;;-0.36;68.88;98742.63;4293888;28;20227;-67
2022/01/20 11:13:14;;;;;;;10.40;2.03;;;;;;;-0.31;69.38;98758.78;4298596;28;20297;-68
2022/01/20 11:15:42;;;;;;;12.07;2.13;;;;;;;-0.27;69.76;98745.34;4239049;28;20249;-70
2022/01/20 11:18:10;;;;;;;9.00;2.40;;;;;;;-0.06;69.82;98769.00;4231612;28;20349;-70
2022/01/20 11:20:45;;;;;;;11.40;2.30;;;;;;;-0.09;69.22;98757.97;4294299;28;20921;-69
2022/01/20 11:23:12;;;;;;;5.73;1.97;;;;;;;0.13;70.46;98768.41;4302257;28;20739;-68
2022/01/20 11:25:41;;;;;;;9.70;2.30;;;;;;;0.18;69.84;98770.66;4265179;28;20743;-67
2022/01/20 11:28:16;;;;;;;6.27;2.07;;;;;;;-0.04;70.83;98781.97;4177694;28;21285;-70
2022/01/20 11:31:04;;;;;;;8.73;2.10;;;;;;;0.09;69.07;98781.84;4352041;28;20238;-66
2022/01/20 11:33:39;;;;;;;6.97;1.30;;;;;;;0.01;67.17;98789.47;4277202;28;21324;-64
2022/01/20 11:36:28;;;;;;;3.97;1.40;;;;;;;-0.12;69.32;98793.00;4212515;28;20601;-67
2022/01/20 11:39:18;;;;;;;4.77;1.30;;;;;;;-0.39;73.84;98803.78;4213631;28;20295;-65
2022/01/20 11:41:47;;;;;;;6.83;1.47;;;;;;;-0.58;76.06;98791.28;4150784;28;25450;-64
2022/01/20 11:44:16;;;;;;;6.53;1.20;;;;;;;-0.80;79.04;98797.25;4152662;28;20286;-74
2022/01/20 11:46:46;;;;;;;5.23;1.40;;;;;;;-1.16;84.23;98803.41;4215250;28;22004;-65
2022/01/20 11:49:15;;;;;;;4.37;1.63;;;;;;;-1.31;87.55;98816.63;4214793;28;20296;-66
2022/01/20 11:51:42;;;;;;;3.77;1.30;;;;;;;-1.37;87.24;98817.03;4192490;28;20230;-67
2022/01/20 11:54:29;;;;;;;6.87;1.40;;;;;;;-1.49;87.11;98825.75;4228258;28;20281;-75
2022/01/20 11:57:17;;;;;;;2.67;1.47;;;;;;;-1.38;85.75;98809.31;4237778;28;20242;-71
2022/01/20 11:59:46;;;;;;;4.33;1.43;;;;;;;-1.30;84.22;98818.28;4158599;28;20326;-66
2022/01/20 12:02:34;;;;;;;5.27;1.40;;;;;;;-1.25;84.24;98811.91;4158508;28;20278;-65
2022/01/20 12:05:02;;;;;;;4.50;1.30;;;;;;;-1.22;83.60;98803.84;4153956;28;20463;-64
2022/01/20 12:07:32;;;;;;;6.77;1.60;;;;;;;-1.28;81.26;98816.38;4149479;28;22531;-64
2022/01/20 12:10:10;;;;;;;5.70;1.17;;;;;;;-1.34;80.86;98822.03;4130337;28;20239;-64
2022/01/20 12:12:39;;;;;;;4.87;1.40;;;;;;;-1.27;79.26;98812.00;4144455;28;21323;-65
2022/01/20 12:15:10;;;;;;;10.37;1.53;;;;;;;-1.21;78.83;98818.56;4154360;28;20258;-67
2022/01/20 12:17:41;;;;;;;2.87;1.23;;;;;;;-1.14;76.97;98811.97;4153424;28;20231;-66
2022/01/20 12:20:10;;;;;;;3.50;1.50;;;;;;;-1.17;75.99;98806.94;4161069;28;21803;-65
2022/01/20 12:22:41;;;;;;;7.17;1.70;;;;;;;-1.03;75.28;98813.78;4147463;28;20294;-65
2022/01/20 12:25:20;;;;;;;6.77;1.90;;;;;;;-0.97;74.80;98813.34;4163555;28;20230;-65
2022/01/20 12:27:47;;;;;;;7.00;1.77;;;;;;;-0.92;71.19;98827.72;4142243;28;21294;-64
2022/01/20 12:30:16;;;;;;;8.17;1.60;;;;;;;-0.94;70.15;98818.31;4166494;28;20239;-70
2022/01/20 12:32:42;;;;;;;5.80;2.20;;;;;;;-0.89;69.50;98824.91;4168161;28;21807;-65
2022/01/20 12:35:09;;;;;;;6.90;1.70;;;;;;;-0.94;69.66;98834.00;4215259;28;22281;-66
2022/01/20 12:37:38;;;;;;;8.97;1.80;;;;;;;-0.92;70.07;98822.50;4147810;28;21797;-67
2022/01/20 12:40:19;;;;;;;5.23;2.20;;;;;;;-0.92;70.94;98816.44;4166075;28;20238;-67
2022/01/20 12:42:46;;;;;;;5.90;1.93;;;;;;;-0.99;72.51;98818.66;4144838;28;20227;-65